Time;durP1;ratioP1;P1;durP2;ratioP2;P2;SDS_P1;SDS_P2;PMS_P1;PMS_P2;Temp;Humidity;BMP_temperature;BMP_pressure;BME280_temperature;BME280_humidity;BME280_pressure;Samples;Min_cycle;Max_cycle;Signal;HPM_P1;HPM_P2
2021/06/11 00:09:22;;;;;;;8.23;5.63;;;;;;;12.57;64.12;99553.63;531398;1089;116994;-61
2021/06/11 00:19:27;;;;;;;8.87;6.60;;;;;;;12.49;63.93;99548.92;531968;1090;116917;-61
2021/06/11 00:29:33;;;;;;;9.43;5.30;;;;;;;12.36;64.46;99538.46;531292;1088;116750;-61
2021/06/11 00:39:39;;;;;;;15.30;7.48;;;;;;;12.31;64.74;99537.94;532612;1089;116489;-62
2021/06/11 00:49:48;;;;;;;15.33;7.67;;;;;;;12.31;65.26;99536.16;532643;1088;116567;-61
2021/06/11 00:59:54;;;;;;;19.88;7.80;;;;;;;12.31;65.27;99538.79;522655;1089;117106;-62
2021/06/11 01:10:02;;;;;;;10.60;7.50;;;;;;;12.43;65.88;99536.22;514165;1088;116813;-61
2021/06/11 01:20:12;;;;;;;12.43;8.20;;;;;;;12.67;66.00;99532.73;528408;1090;116527;-61
2021/06/11 01:30:22;;;;;;;14.23;8.43;;;;;;;12.95;65.97;99526.25;513521;1089;116403;-62
2021/06/11 01:40:29;;;;;;;13.70;9.20;;;;;;;13.02;65.54;99527.45;532278;1089;116647;-62
2021/06/11 01:50:36;;;;;;;16.83;9.63;;;;;;;13.11;66.18;99519.81;531322;1089;117026;-61
2021/06/11 02:00:43;;;;;;;15.87;9.47;;;;;;;13.28;66.09;99515.89;521763;1090;117431;-59
2021/06/11 02:10:48;;;;;;;13.20;8.97;;;;;;;13.30;65.93;99508.69;513012;1088;116150;-60
2021/06/11 02:20:55;;;;;;;9.83;7.90;;;;;;;13.18;66.21;99502.58;530382;1089;116868;-62
2021/06/11 02:31:01;;;;;;;29.40;9.83;;;;;;;13.08;66.13;99505.06;532310;1089;116195;-59
2021/06/11 02:41:11;;;;;;;10.77;8.30;;;;;;;13.10;66.44;99503.17;531280;1088;115819;-61
2021/06/11 02:51:25;;;;;;;10.90;8.40;;;;;;;13.71;66.35;99509.95;531386;1090;117099;-61
2021/06/11 03:01:35;;;;;;;13.33;9.37;;;;;;;15.09;65.05;99515.66;523850;1090;117001;-61
2021/06/11 03:11:43;;;;;;;16.57;8.60;;;;;;;18.33;60.85;99521.96;512470;1089;116639;-61
2021/06/11 03:21:54;;;;;;;20.78;9.38;;;;;;;19.10;58.07;99524.14;524278;1089;116020;-61
2021/06/11 03:32:04;;;;;;;13.67;9.17;;;;;;;19.53;54.18;99520.75;513087;1090;117618;-61
2021/06/11 03:42:12;;;;;;;14.57;9.57;;;;;;;18.27;54.96;99518.08;530260;1089;116177;-60
2021/06/11 03:52:23;;;;;;;15.20;9.97;;;;;;;19.39;55.91;99511.52;531211;1089;115867;-61
2021/06/11 04:02:29;;;;;;;23.27;10.83;;;;;;;27.41;47.30;99512.33;531316;1089;116284;-61
2021/06/11 04:12:41;;;;;;;83.57;20.23;;;;;;;32.49;39.52;99514.72;515758;1089;116885;-61
2021/06/11 04:22:50;;;;;;;13.83;9.77;;;;;;;35.99;33.20;99500.45;528708;1090;117164;-62
2021/06/11 04:32:56;;;;;;;11.00;9.85;;;;;;;39.31;28.31;99501.73;530738;1089;117055;-63
2021/06/11 04:43:02;;;;;;;9.83;8.37;;;;;;;42.80;23.67;99505.94;523759;1090;116368;-62
2021/06/11 04:53:08;;;;;;;12.67;10.23;;;;;;;40.72;22.24;99495.84;513880;1090;116076;-63
2021/06/11 05:03:14;;;;;;;10.17;8.40;;;;;;;42.39;21.10;99497.56;514582;1088;116484;-63
2021/06/11 05:13:21;;;;;;;11.70;7.75;;;;;;;44.02;19.42;99492.75;531130;1088;116675;-63
2021/06/11 05:23:27;;;;;;;11.00;8.35;;;;;;;41.95;19.07;99496.41;531160;1090;116223;-64
2021/06/11 05:33:33;;;;;;;8.37;7.47;;;;;;;41.43;19.33;99506.61;515997;1089;116505;-62
2021/06/11 05:43:39;;;;;;;10.30;7.40;;;;;;;42.51;18.15;99497.03;513061;1090;116810;-62
2021/06/11 05:53:46;;;;;;;13.55;7.25;;;;;;;44.67;17.16;99494.78;512360;1089;117954;-64
2021/06/11 06:03:52;;;;;;;24.85;9.33;;;;;;;38.80;19.16;99499.23;531106;1088;116105;-62
2021/06/11 06:13:59;;;;;;;18.38;7.90;;;;;;;33.12;23.46;99501.05;531172;1089;117205;-62
2021/06/11 06:24:08;;;;;;;18.27;7.30;;;;;;;29.39;26.92;99499.05;522187;1089;116610;-61
2021/06/11 06:34:14;;;;;;;19.77;8.47;;;;;;;27.81;30.69;99498.72;527972;1088;117095;-61
2021/06/11 06:44:20;;;;;;;16.75;6.98;;;;;;;27.59;31.64;99494.66;513122;1089;116824;-60
2021/06/11 06:54:26;;;;;;;13.23;6.20;;;;;;;32.90;29.68;99499.08;516446;1090;116381;-57
2021/06/11 07:04:32;;;;;;;7.95;5.20;;;;;;;34.92;24.50;99498.62;531153;1090;116237;-57
2021/06/11 07:14:40;;;;;;;9.33;4.93;;;;;;;32.64;24.81;99500.57;519680;1090;115940;-59
2021/06/11 07:24:46;;;;;;;6.83;5.30;;;;;;;29.93;27.15;99498.44;522942;1088;116237;-62
2021/06/11 07:34:56;;;;;;;8.97;4.47;;;;;;;27.71;29.84;99495.68;513007;1090;116207;-58
2021/06/11 07:45:02;;;;;;;11.98;5.30;;;;;;;26.38;32.19;99499.08;531281;1089;116629;-59
2021/06/11 07:55:10;;;;;;;8.67;4.63;;;;;;;26.52;32.90;99499.09;519780;1090;116163;-60
2021/06/11 08:05:16;;;;;;;6.93;4.17;;;;;;;25.40;34.02;99500.13;531114;1089;116756;-60
2021/06/11 08:15:22;;;;;;;7.13;3.63;;;;;;;24.19;34.88;99511.49;527747;1089;116254;-60
2021/06/11 08:25:28;;;;;;;6.33;4.40;;;;;;;24.07;36.12;99502.28;526541;1090;117152;-60
2021/06/11 08:35:34;;;;;;;8.73;3.13;;;;;;;25.17;35.04;99504.73;530418;1089;116538;-59
2021/06/11 08:45:41;;;;;;;4.73;3.00;;;;;;;25.28;34.70;99502.53;531144;1089;116839;-58
2021/06/11 08:55:48;;;;;;;4.93;3.43;;;;;;;25.99;34.13;99506.81;531989;1089;116592;-57
2021/06/11 09:06:12;;;;;;;9.00;5.53;;;;;;;26.73;33.45;99503.48;531295;1088;115967;-58
2021/06/11 09:16:21;;;;;;;6.87;3.70;;;;;;;28.37;31.83;99490.16;518479;1089;115953;-59
2021/06/11 09:26:27;;;;;;;3.93;3.00;;;;;;;29.45;30.03;99490.08;516909;1089;116750;-59
2021/06/11 09:36:34;;;;;;;8.55;2.50;;;;;;;30.65;28.50;99480.56;519609;1090;115867;-59
2021/06/11 09:46:48;;;;;;;7.55;3.53;;;;;;;30.77;28.77;99483.27;517603;1090;116888;-58
2021/06/11 09:56:56;;;;;;;4.23;2.10;;;;;;;29.23;27.60;99486.94;527722;1089;116527;-59
2021/06/11 10:07:02;;;;;;;11.97;2.97;;;;;;;29.06;28.65;99479.43;519195;1089;116754;-57
2021/06/11 10:17:10;;;;;;;11.28;3.43;;;;;;;28.96;28.74;99468.30;513034;1089;116989;-59
2021/06/11 10:27:17;;;;;;;6.23;3.80;;;;;;;27.84;29.44;99467.80;520446;1089;116334;-57
2021/06/11 10:37:39;;;;;;;4.53;2.85;;;;;;;27.25;29.92;99455.16;525721;1088;115619;-57
2021/06/11 10:47:56;;;;;;;6.48;3.38;;;;;;;27.37;30.13;99443.72;513432;1088;116132;-58
2021/06/11 10:58:14;;;;;;;;;;;;;;;27.49;30.09;99452.80;522714;1090;116362;-57
2021/06/11 11:08:21;;;;;;;3.17;2.53;;;;;;;27.58;30.15;99436.38;520348;1089;102868;-57
2021/06/11 11:18:41;;;;;;;2.67;2.30;;;;;;;28.08;29.41;99428.45;513477;1088;116709;-61
2021/06/11 11:28:48;;;;;;;3.43;3.13;;;;;;;27.76;29.86;99422.19;528821;1090;117358;-61
2021/06/11 11:38:55;;;;;;;7.68;2.30;;;;;;;27.99;29.41;99413.55;519014;1089;116410;-62
2021/06/11 11:49:01;;;;;;;2.90;2.50;;;;;;;28.24;29.18;99410.92;516806;1088;116067;-60
2021/06/11 11:59:08;;;;;;;3.17;2.77;;;;;;;27.64;29.71;99395.09;520548;1089;116495;-59
2021/06/11 12:09:14;;;;;;;6.50;3.38;;;;;;;26.87;30.88;99399.27;516988;1090;118170;-59
2021/06/11 12:19:20;;;;;;;7.40;4.00;;;;;;;25.61;32.60;99394.39;516066;1090;115330;-62
2021/06/11 12:29:27;;;;;;;3.53;2.58;;;;;;;25.70;33.04;99395.88;514401;1089;115525;-61
2021/06/11 12:39:34;;;;;;;4.30;3.00;;;;;;;25.71;33.16;99384.08;514687;1089;116524;-61
2021/06/11 12:49:42;;;;;;;3.87;3.13;;;;;;;25.95;33.17;99389.08;520966;1089;117730;-60
2021/06/11 12:59:48;;;;;;;9.63;3.00;;;;;;;26.20;33.15;99372.38;521087;1089;115677;-61
2021/06/11 13:09:55;;;;;;;4.83;3.53;;;;;;;25.74;33.18;99372.07;531237;1089;116859;-61
2021/06/11 13:20:00;;;;;;;3.43;3.17;;;;;;;25.45;34.41;99374.05;525278;1089;116430;-61
2021/06/11 13:30:09;;;;;;;10.90;4.13;;;;;;;25.15;35.28;99374.32;524392;1088;116150;-61
2021/06/11 13:40:17;;;;;;;3.78;2.68;;;;;;;24.68;36.07;99369.48;517084;1089;116230;-60
2021/06/11 13:50:25;;;;;;;4.93;2.70;;;;;;;24.03;37.49;99383.83;518036;1088;116257;-61
2021/06/11 14:00:31;;;;;;;4.93;3.27;;;;;;;23.51;37.88;99383.89;513627;1088;116160;-60
2021/06/11 14:10:37;;;;;;;6.70;3.60;;;;;;;23.56;38.36;99377.13;513167;1088;116718;-61
2021/06/11 14:20:43;;;;;;;9.07;3.90;;;;;;;23.76;37.64;99377.34;512501;1090;116061;-61
2021/06/11 14:30:50;;;;;;;2.77;2.57;;;;;;;23.71;37.64;99371.73;525323;1090;115793;-60
2021/06/11 14:40:56;;;;;;;4.47;2.83;;;;;;;23.63;36.93;99370.81;527236;1089;116975;-61
2021/06/11 14:51:02;;;;;;;2.20;2.00;;;;;;;23.59;36.46;99368.70;520264;1088;116776;-59
2021/06/11 15:01:08;;;;;;;1.70;1.60;;;;;;;23.56;36.16;99361.05;518095;1090;116324;-60
2021/06/11 15:11:15;;;;;;;2.33;2.00;;;;;;;23.41;36.19;99356.56;530498;1088;116215;-61
2021/06/11 15:21:21;;;;;;;4.95;1.80;;;;;;;23.41;36.10;99351.20;517019;1089;115952;-59
2021/06/11 15:31:28;;;;;;;1.70;1.60;;;;;;;23.07;36.00;99336.55;520224;1088;116474;-60
2021/06/11 15:41:34;;;;;;;5.93;1.87;;;;;;;22.97;36.13;99336.00;518107;1090;116520;-60
2021/06/11 15:51:41;;;;;;;3.50;2.00;;;;;;;22.98;35.60;99338.50;515815;1088;115985;-60
2021/06/11 16:01:46;;;;;;;2.93;1.40;;;;;;;22.98;36.18;99335.83;529668;1089;116719;-61
2021/06/11 16:11:53;;;;;;;1.95;1.85;;;;;;;22.89;36.13;99344.97;521464;1088;116520;-61
2021/06/11 16:22:00;;;;;;;2.20;1.97;;;;;;;22.88;36.15;99340.63;531112;1088;116129;-61
2021/06/11 16:32:06;;;;;;;5.50;1.77;;;;;;;22.88;35.30;99346.80;531111;1088;116626;-61
2021/06/11 16:42:13;;;;;;;2.33;1.63;;;;;;;22.87;34.84;99347.81;531533;1089;116260;-61
2021/06/11 16:52:19;;;;;;;10.47;1.73;;;;;;;23.25;34.16;99352.22;530305;1088;116854;-62
2021/06/11 17:02:26;;;;;;;2.97;1.27;;;;;;;22.84;34.55;99353.55;522492;1088;10001744;-61
2021/06/11 17:12:31;;;;;;;5.03;1.77;;;;;;;22.73;34.78;99360.17;519489;1088;115988;-60
2021/06/11 17:22:46;;;;;;;6.67;1.40;;;;;;;22.61;35.03;99375.02;532019;1089;117319;-59
2021/06/11 17:32:53;;;;;;;4.90;1.53;;;;;;;22.49;35.39;99369.30;528045;1089;117587;-60
2021/06/11 17:43:01;;;;;;;2.50;1.47;;;;;;;22.32;35.97;99371.25;522365;1089;116584;-61
2021/06/11 17:53:11;;;;;;;3.15;1.58;;;;;;;23.31;35.66;99375.59;530663;1089;116516;-59
2021/06/11 18:03:23;;;;;;;3.50;1.50;;;;;;;22.61;35.73;99375.02;524262;1088;116593;-61
2021/06/11 18:13:36;;;;;;;4.10;3.43;;;;;;;22.02;36.58;99366.64;532460;1090;115913;-60
2021/06/11 18:23:42;;;;;;;6.30;3.93;;;;;;;21.59;37.63;99372.41;522326;1089;116158;-59
2021/06/11 18:33:54;;;;;;;8.03;3.03;;;;;;;21.09;39.31;99366.47;505484;1090;10001886;-61
2021/06/11 18:44:07;;;;;;;11.13;3.08;;;;;;;20.58;40.20;99372.88;516126;1089;10001738;-62
2021/06/11 18:54:17;;;;;;;37.53;5.60;;;;;;;20.05;41.75;99386.58;508988;1089;10001540;-63
2021/06/11 19:04:49;;;;;;;7.40;3.20;;;;;;;19.52;43.99;99381.44;527373;1089;116515;-64
2021/06/11 19:14:55;;;;;;;12.13;4.03;;;;;;;19.04;45.11;99381.06;519606;1088;116014;-65
2021/06/11 19:25:06;;;;;;;6.17;3.03;;;;;;;18.50;46.42;99374.08;527563;1089;118480;-63
2021/06/11 19:35:13;;;;;;;6.73;4.07;;;;;;;18.10;48.11;99372.75;531526;1089;115801;-62
2021/06/11 19:45:22;;;;;;;7.55;4.33;;;;;;;17.73;49.08;99372.72;517382;1089;116167;-64
2021/06/11 19:55:45;;;;;;;8.90;4.28;;;;;;;17.36;50.14;99387.73;522788;1089;116287;-69
2021/06/11 20:05:51;;;;;;;32.67;15.23;;;;;;;16.98;51.41;99386.08;513477;1089;115810;-64
2021/06/11 20:15:57;;;;;;;19.90;13.67;;;;;;;16.69;52.53;99394.94;520843;1088;116210;-66
2021/06/11 20:26:04;;;;;;;19.07;11.83;;;;;;;16.56;53.24;99397.88;522577;1090;117022;-65
2021/06/11 20:36:12;;;;;;;16.48;8.78;;;;;;;16.44;54.16;99391.91;513875;1089;116703;-67
2021/06/11 20:46:23;;;;;;;12.97;7.30;;;;;;;16.39;54.84;99389.68;517640;1089;116768;-61
2021/06/11 20:56:29;;;;;;;12.30;8.07;;;;;;;16.39;55.09;99397.63;522304;1089;116828;-63
2021/06/11 21:06:36;;;;;;;14.47;7.77;;;;;;;16.25;55.97;99405.03;514023;1089;116403;-61
2021/06/11 21:16:44;;;;;;;14.53;8.27;;;;;;;16.13;56.25;99407.95;514184;1090;116150;-63
2021/06/11 21:26:51;;;;;;;13.40;6.30;;;;;;;15.92;57.03;99407.10;515509;1089;116262;-60
2021/06/11 21:36:58;;;;;;;9.53;6.43;;;;;;;15.76;56.96;99404.95;527743;1088;119735;-60
2021/06/11 21:47:06;;;;;;;12.73;7.50;;;;;;;15.71;58.17;99412.48;531816;1089;116360;-61
2021/06/11 21:57:13;;;;;;;12.50;7.33;;;;;;;15.65;58.72;99413.86;531486;1089;116830;-61
2021/06/11 22:07:20;;;;;;;13.10;7.30;;;;;;;15.50;58.91;99416.05;528660;1089;116897;-61
2021/06/11 22:17:29;;;;;;;11.73;7.37;;;;;;;15.24;59.12;99420.95;530344;1088;116282;-60
2021/06/11 22:27:35;;;;;;;13.18;8.43;;;;;;;15.05;59.60;99421.70;532028;1089;117235;-61
2021/06/11 22:37:41;;;;;;;10.70;7.27;;;;;;;14.89;60.20;99416.89;530025;1090;116249;-63
2021/06/11 22:47:48;;;;;;;13.00;8.13;;;;;;;14.69;60.63;99412.30;530251;1088;116551;-59
2021/06/11 22:57:58;;;;;;;13.10;8.63;;;;;;;14.50;61.12;99420.94;532062;1089;116270;-60
2021/06/11 23:08:05;;;;;;;26.00;9.73;;;;;;;14.36;61.69;99423.86;532405;1089;118582;-59
2021/06/11 23:18:11;;;;;;;12.10;8.90;;;;;;;14.45;61.90;99422.28;516493;1088;116516;-58
2021/06/11 23:28:17;;;;;;;13.27;9.50;;;;;;;14.53;61.75;99427.74;514086;1089;116826;-58
2021/06/11 23:38:29;;;;;;;11.70;8.80;;;;;;;14.60;61.97;99410.42;526899;1089;116817;-61
2021/06/11 23:48:35;;;;;;;13.33;8.08;;;;;;;14.65;62.13;99410.86;517393;1089;116831;-59
2021/06/11 23:58:42;;;;;;;9.60;7.93;;;;;;;14.63;62.28;99409.34;530125;1089;116715;-60
